Blaney Park, Michigan
Current Conditions -  °F | °C
As of 6:33 PM on Saturday 22 Nov 2014 (Local Time) from KISQ Reporting Station
Overcast Overcast  
Wind Chill: 35°   Ceiling: 1100
Heat Index: 35°   Visibility: 7mi
Dew Point: 32°   Wind: 0mph
Humidity: 90%   Direction: NA
Pressure: 29.74"   Gusts: NA
Location:  46.2466°N, 85.928°W
Report Text: KISQ 222333Z AUTO 00000KT 7SM OVC011 02/00 A2974 RMK AO2 T00150000
Loading
Personal Weather Stations






























Interactive Weather Map New forecast layout! Learn more

10-Day Weather Forecast

Advertisements
Track Severe Weather on mobile